sensor_id;sensor_type;location;lat;lon;timestamp;P1;durP1;ratioP1;P2;durP2;ratioP2
1753;SDS011;58380;48.312;9.246;2024-03-07T08:07:10;60.25;;;20.00;;
1753;SDS011;58380;48.312;9.246;2024-03-07T08:10:11;78.78;;;24.20;;
1753;SDS011;58380;48.312;9.246;2024-03-07T08:13:12;77.90;;;28.42;;
1753;SDS011;58380;48.312;9.246;2024-03-07T08:16:13;77.20;;;29.85;;
1753;SDS011;58380;48.312;9.246;2024-03-07T08:19:13;64.25;;;27.05;;
1753;SDS011;58380;48.312;9.246;2024-03-07T08:22:14;62.33;;;28.00;;
1753;SDS011;58380;48.312;9.246;2024-03-07T08:25:15;65.53;;;26.02;;
1753;SDS011;58380;48.312;9.246;2024-03-07T08:28:17;58.60;;;26.75;;
1753;SDS011;58380;48.312;9.246;2024-03-07T08:31:18;60.20;;;26.77;;
1753;SDS011;58380;48.312;9.246;2024-03-07T08:34:18;59.28;;;25.67;;
1753;SDS011;58380;48.312;9.246;2024-03-07T08:37:19;55.47;;;25.92;;
1753;SDS011;58380;48.312;9.246;2024-03-07T08:40:22;61.10;;;27.20;;
1753;SDS011;58380;48.312;9.246;2024-03-07T08:43:31;55.63;;;25.67;;
1753;SDS011;58380;48.312;9.246;2024-03-07T08:46:31;56.92;;;25.60;;
1753;SDS011;58380;48.312;9.246;2024-03-07T08:49:31;57.33;;;24.98;;
1753;SDS011;58380;48.312;9.246;2024-03-07T08:52:32;55.63;;;25.58;;
1753;SDS011;58380;48.312;9.246;2024-03-07T08:55:32;52.83;;;25.67;;
1753;SDS011;58380;48.312;9.246;2024-03-07T08:58:35;59.13;;;26.77;;
1753;SDS011;58380;48.312;9.246;2024-03-07T09:01:36;61.30;;;28.38;;
1753;SDS011;58380;48.312;9.246;2024-03-07T09:04:36;58.65;;;26.25;;
1753;SDS011;58380;48.312;9.246;2024-03-07T09:07:38;57.10;;;27.30;;
1753;SDS011;58380;48.312;9.246;2024-03-07T09:10:38;55.80;;;26.15;;
1753;SDS011;58380;48.312;9.246;2024-03-07T09:13:41;62.33;;;27.17;;
1753;SDS011;58380;48.312;9.246;2024-03-07T09:16:42;56.63;;;27.90;;
1753;SDS011;58380;48.312;9.246;2024-03-07T09:19:43;50.28;;;26.33;;
1753;SDS011;58380;48.312;9.246;2024-03-07T09:22:45;58.55;;;27.08;;
1753;SDS011;58380;48.312;9.246;2024-03-07T09:25:50;62.40;;;28.85;;
1753;SDS011;58380;48.312;9.246;2024-03-07T09:28:50;57.47;;;27.92;;
1753;SDS011;58380;48.312;9.246;2024-03-07T09:31:51;51.35;;;27.58;;
1753;SDS011;58380;48.312;9.246;2024-03-07T09:34:52;56.25;;;27.63;;
1753;SDS011;58380;48.312;9.246;2024-03-07T09:37:52;47.13;;;25.23;;
1753;SDS011;58380;48.312;9.246;2024-03-07T09:40:53;50.80;;;25.85;;
1753;SDS011;58380;48.312;9.246;2024-03-07T09:43:53;55.38;;;27.77;;
1753;SDS011;58380;48.312;9.246;2024-03-07T09:46:55;55.08;;;29.23;;
1753;SDS011;58380;48.312;9.246;2024-03-07T09:49:58;57.33;;;30.27;;
1753;SDS011;58380;48.312;9.246;2024-03-07T09:53:00;56.33;;;30.45;;
1753;SDS011;58380;48.312;9.246;2024-03-07T09:56:03;57.55;;;29.60;;
1753;SDS011;58380;48.312;9.246;2024-03-07T09:59:06;54.63;;;30.25;;
1753;SDS011;58380;48.312;9.246;2024-03-07T10:02:13;53.75;;;28.90;;
1753;SDS011;58380;48.312;9.246;2024-03-07T10:05:16;56.63;;;28.20;;
1753;SDS011;58380;48.312;9.246;2024-03-07T10:08:18;59.67;;;30.60;;
1753;SDS011;58380;48.312;9.246;2024-03-07T10:11:21;52.17;;;28.35;;
1753;SDS011;58380;48.312;9.246;2024-03-07T10:14:23;57.80;;;28.38;;
1753;SDS011;58380;48.312;9.246;2024-03-07T10:17:24;53.75;;;27.85;;
1753;SDS011;58380;48.312;9.246;2024-03-07T10:20:28;48.75;;;27.40;;
1753;SDS011;58380;48.312;9.246;2024-03-07T10:23:28;48.40;;;25.52;;
1753;SDS011;58380;48.312;9.246;2024-03-07T10:26:28;48.50;;;25.55;;
1753;SDS011;58380;48.312;9.246;2024-03-07T10:29:29;46.67;;;24.55;;
1753;SDS011;58380;48.312;9.246;2024-03-07T10:32:30;55.55;;;26.88;;
1753;SDS011;58380;48.312;9.246;2024-03-07T10:35:31;58.70;;;29.63;;
1753;SDS011;58380;48.312;9.246;2024-03-07T10:38:31;56.25;;;29.50;;
1753;SDS011;58380;48.312;9.246;2024-03-07T10:41:33;62.78;;;31.08;;
1753;SDS011;58380;48.312;9.246;2024-03-07T10:44:37;56.13;;;28.70;;
1753;SDS011;58380;48.312;9.246;2024-03-07T10:47:43;59.55;;;28.83;;
1753;SDS011;58380;48.312;9.246;2024-03-07T10:57:50;54.60;;;28.20;;
1753;SDS011;58380;48.312;9.246;2024-03-07T11:00:56;57.33;;;28.48;;
1753;SDS011;58380;48.312;9.246;2024-03-07T11:04:03;57.83;;;28.83;;
1753;SDS011;58380;48.312;9.246;2024-03-07T11:07:05;57.15;;;28.50;;
1753;SDS011;58380;48.312;9.246;2024-03-07T11:10:06;59.10;;;31.65;;
1753;SDS011;58380;48.312;9.246;2024-03-07T11:13:11;57.17;;;31.23;;
1753;SDS011;58380;48.312;9.246;2024-03-07T11:16:14;62.78;;;31.17;;
1753;SDS011;58380;48.312;9.246;2024-03-07T11:22:28;64.45;;;32.65;;
1753;SDS011;58380;48.312;9.246;2024-03-07T11:25:34;64.22;;;32.10;;
1753;SDS011;58380;48.312;9.246;2024-03-07T11:28:35;64.75;;;31.65;;
1753;SDS011;58380;48.312;9.246;2024-03-07T11:31:38;60.00;;;30.58;;
1753;SDS011;58380;48.312;9.246;2024-03-07T11:34:39;63.67;;;30.98;;
1753;SDS011;58380;48.312;9.246;2024-03-07T11:37:47;63.67;;;33.28;;
1753;SDS011;58380;48.312;9.246;2024-03-07T11:40:50;64.32;;;32.47;;
1753;SDS011;58380;48.312;9.246;2024-03-07T11:43:52;60.75;;;30.73;;
1753;SDS011;58380;48.312;9.246;2024-03-07T11:46:55;56.03;;;30.58;;
1753;SDS011;58380;48.312;9.246;2024-03-07T11:49:55;55.80;;;30.17;;
1753;SDS011;58380;48.312;9.246;2024-03-07T11:52:57;56.60;;;29.73;;
1753;SDS011;58380;48.312;9.246;2024-03-07T11:55:59;48.63;;;27.35;;
1753;SDS011;58380;48.312;9.246;2024-03-07T11:59:00;55.15;;;30.00;;
1753;SDS011;58380;48.312;9.246;2024-03-07T12:02:02;57.25;;;30.02;;
1753;SDS011;58380;48.312;9.246;2024-03-07T12:05:04;57.53;;;30.40;;
1753;SDS011;58380;48.312;9.246;2024-03-07T12:08:06;50.63;;;29.02;;
1753;SDS011;58380;48.312;9.246;2024-03-07T12:11:06;53.75;;;30.75;;
1753;SDS011;58380;48.312;9.246;2024-03-07T12:14:07;55.55;;;29.80;;
1753;SDS011;58380;48.312;9.246;2024-03-07T12:17:07;53.60;;;29.45;;
1753;SDS011;58380;48.312;9.246;2024-03-07T12:20:08;52.78;;;27.50;;
1753;SDS011;58380;48.312;9.246;2024-03-07T12:23:24;57.30;;;29.85;;
1753;SDS011;58380;48.312;9.246;2024-03-07T12:26:28;57.40;;;29.67;;
1753;SDS011;58380;48.312;9.246;2024-03-07T12:29:30;58.53;;;29.92;;
1753;SDS011;58380;48.312;9.246;2024-03-07T12:32:30;55.88;;;30.70;;
1753;SDS011;58380;48.312;9.246;2024-03-07T12:35:31;55.90;;;30.00;;
1753;SDS011;58380;48.312;9.246;2024-03-07T12:38:32;60.45;;;29.02;;
1753;SDS011;58380;48.312;9.246;2024-03-07T12:41:35;58.70;;;30.23;;
1753;SDS011;58380;48.312;9.246;2024-03-07T12:44:40;54.88;;;29.33;;
1753;SDS011;58380;48.312;9.246;2024-03-07T12:47:51;58.60;;;31.15;;
1753;SDS011;58380;48.312;9.246;2024-03-07T12:53:54;53.88;;;28.52;;
1753;SDS011;58380;48.312;9.246;2024-03-07T12:56:55;58.85;;;30.55;;
1753;SDS011;58380;48.312;9.246;2024-03-07T12:59:56;59.25;;;31.90;;
1753;SDS011;58380;48.312;9.246;2024-03-07T13:02:56;59.55;;;31.50;;
1753;SDS011;58380;48.312;9.246;2024-03-07T13:05:57;58.75;;;31.15;;
1753;SDS011;58380;48.312;9.246;2024-03-07T13:09:00;53.92;;;30.88;;
1753;SDS011;58380;48.312;9.246;2024-03-07T13:12:01;56.83;;;30.80;;
1753;SDS011;58380;48.312;9.246;2024-03-07T13:15:04;54.78;;;29.35;;
1753;SDS011;58380;48.312;9.246;2024-03-07T13:18:10;57.33;;;30.08;;
1753;SDS011;58380;48.312;9.246;2024-03-07T13:21:10;56.42;;;30.45;;
1753;SDS011;58380;48.312;9.246;2024-03-07T13:24:17;55.88;;;29.92;;
1753;SDS011;58380;48.312;9.246;2024-03-07T13:27:17;54.08;;;30.00;;
1753;SDS011;58380;48.312;9.246;2024-03-07T13:30:25;49.97;;;27.58;;
1753;SDS011;58380;48.312;9.246;2024-03-07T13:33:27;49.40;;;29.23;;
1753;SDS011;58380;48.312;9.246;2024-03-07T13:36:27;53.30;;;29.77;;
1753;SDS011;58380;48.312;9.246;2024-03-07T13:39:28;53.65;;;30.42;;
1753;SDS011;58380;48.312;9.246;2024-03-07T13:42:29;52.42;;;28.83;;
1753;SDS011;58380;48.312;9.246;2024-03-07T13:45:30;54.15;;;29.98;;
1753;SDS011;58380;48.312;9.246;2024-03-07T13:48:40;54.25;;;29.35;;
1753;SDS011;58380;48.312;9.246;2024-03-07T13:51:44;57.65;;;29.50;;
1753;SDS011;58380;48.312;9.246;2024-03-07T13:54:50;56.03;;;30.23;;
1753;SDS011;58380;48.312;9.246;2024-03-07T13:57:55;52.47;;;29.63;;
1753;SDS011;58380;48.312;9.246;2024-03-07T14:08:20;53.90;;;28.60;;
1753;SDS011;58380;48.312;9.246;2024-03-07T14:23:30;55.65;;;31.30;;
1753;SDS011;58380;48.312;9.246;2024-03-07T14:27:14;55.40;;;30.38;;
1753;SDS011;58380;48.312;9.246;2024-03-07T14:30:42;54.40;;;31.95;;
1753;SDS011;58380;48.312;9.246;2024-03-07T14:37:02;57.35;;;30.50;;
1753;SDS011;58380;48.312;9.246;2024-03-07T14:40:16;51.10;;;30.73;;
1753;SDS011;58380;48.312;9.246;2024-03-07T14:43:17;50.35;;;28.38;;
1753;SDS011;58380;48.312;9.246;2024-03-07T14:46:19;50.83;;;29.10;;
1753;SDS011;58380;48.312;9.246;2024-03-07T14:49:21;53.92;;;30.83;;
1753;SDS011;58380;48.312;9.246;2024-03-07T14:52:23;52.83;;;30.38;;
1753;SDS011;58380;48.312;9.246;2024-03-07T14:55:23;53.58;;;31.45;;
1753;SDS011;58380;48.312;9.246;2024-03-07T14:58:24;50.35;;;30.35;;
1753;SDS011;58380;48.312;9.246;2024-03-07T15:01:26;50.75;;;30.38;;
1753;SDS011;58380;48.312;9.246;2024-03-07T15:04:27;53.50;;;30.88;;
1753;SDS011;58380;48.312;9.246;2024-03-07T15:07:32;52.47;;;30.90;;
1753;SDS011;58380;48.312;9.246;2024-03-07T15:10:36;52.33;;;28.55;;
1753;SDS011;58380;48.312;9.246;2024-03-07T15:13:40;54.42;;;31.25;;
1753;SDS011;58380;48.312;9.246;2024-03-07T15:16:42;52.70;;;30.35;;
1753;SDS011;58380;48.312;9.246;2024-03-07T15:19:43;47.90;;;29.95;;
1753;SDS011;58380;48.312;9.246;2024-03-07T15:22:43;51.40;;;28.98;;
1753;SDS011;58380;48.312;9.246;2024-03-07T15:25:46;50.65;;;29.55;;
1753;SDS011;58380;48.312;9.246;2024-03-07T15:28:46;46.58;;;28.40;;
1753;SDS011;58380;48.312;9.246;2024-03-07T15:31:48;51.90;;;29.02;;
1753;SDS011;58380;48.312;9.246;2024-03-07T15:34:49;46.72;;;28.20;;
1753;SDS011;58380;48.312;9.246;2024-03-07T15:37:50;49.95;;;29.27;;
1753;SDS011;58380;48.312;9.246;2024-03-07T15:41:00;44.72;;;26.50;;
1753;SDS011;58380;48.312;9.246;2024-03-07T15:44:02;47.70;;;27.67;;
1753;SDS011;58380;48.312;9.246;2024-03-07T15:47:02;46.22;;;26.83;;
1753;SDS011;58380;48.312;9.246;2024-03-07T15:50:05;45.42;;;26.60;;
1753;SDS011;58380;48.312;9.246;2024-03-07T15:53:05;42.58;;;25.52;;
1753;SDS011;58380;48.312;9.246;2024-03-07T15:56:06;45.97;;;28.02;;
1753;SDS011;58380;48.312;9.246;2024-03-07T15:59:07;43.45;;;27.05;;
1753;SDS011;58380;48.312;9.246;2024-03-07T16:02:07;46.67;;;27.92;;
1753;SDS011;58380;48.312;9.246;2024-03-07T16:05:10;44.72;;;26.33;;
1753;SDS011;58380;48.312;9.246;2024-03-07T16:08:13;45.92;;;28.48;;
1753;SDS011;58380;48.312;9.246;2024-03-07T16:11:18;46.83;;;26.85;;
1753;SDS011;58380;48.312;9.246;2024-03-07T16:14:24;48.30;;;27.30;;
1753;SDS011;58380;48.312;9.246;2024-03-07T16:17:24;46.53;;;26.17;;
1753;SDS011;58380;48.312;9.246;2024-03-07T16:20:25;46.28;;;27.75;;
1753;SDS011;58380;48.312;9.246;2024-03-07T16:23:26;46.78;;;26.83;;
1753;SDS011;58380;48.312;9.246;2024-03-07T16:26:33;44.95;;;28.15;;
1753;SDS011;58380;48.312;9.246;2024-03-07T16:29:35;46.53;;;27.50;;
1753;SDS011;58380;48.312;9.246;2024-03-07T16:32:35;46.85;;;27.73;;
1753;SDS011;58380;48.312;9.246;2024-03-07T16:35:36;47.42;;;29.05;;
1753;SDS011;58380;48.312;9.246;2024-03-07T16:38:36;48.33;;;25.95;;
1753;SDS011;58380;48.312;9.246;2024-03-07T16:41:37;48.80;;;28.45;;
1753;SDS011;58380;48.312;9.246;2024-03-07T16:44:37;54.45;;;27.92;;
1753;SDS011;58380;48.312;9.246;2024-03-07T16:47:38;48.50;;;27.48;;
1753;SDS011;58380;48.312;9.246;2024-03-07T16:50:44;47.20;;;27.38;;
1753;SDS011;58380;48.312;9.246;2024-03-07T16:53:45;46.55;;;26.95;;
1753;SDS011;58380;48.312;9.246;2024-03-07T16:56:45;48.13;;;27.90;;
1753;SDS011;58380;48.312;9.246;2024-03-07T16:59:45;46.00;;;27.70;;
1753;SDS011;58380;48.312;9.246;2024-03-07T17:02:48;42.10;;;26.83;;
1753;SDS011;58380;48.312;9.246;2024-03-07T17:05:48;45.75;;;27.63;;
1753;SDS011;58380;48.312;9.246;2024-03-07T17:08:50;43.97;;;27.33;;
1753;SDS011;58380;48.312;9.246;2024-03-07T17:11:50;43.13;;;26.83;;
1753;SDS011;58380;48.312;9.246;2024-03-07T17:14:50;42.85;;;27.27;;
1753;SDS011;58380;48.312;9.246;2024-03-07T17:17:51;41.92;;;25.25;;
1753;SDS011;58380;48.312;9.246;2024-03-07T17:20:53;42.70;;;26.35;;
1753;SDS011;58380;48.312;9.246;2024-03-07T17:23:55;40.35;;;24.35;;
1753;SDS011;58380;48.312;9.246;2024-03-07T17:26:55;43.47;;;25.63;;
1753;SDS011;58380;48.312;9.246;2024-03-07T17:29:56;42.38;;;24.67;;
1753;SDS011;58380;48.312;9.246;2024-03-07T17:32:58;38.38;;;23.63;;
1753;SDS011;58380;48.312;9.246;2024-03-07T17:35:59;39.03;;;23.80;;
1753;SDS011;58380;48.312;9.246;2024-03-07T17:38:59;39.00;;;22.95;;
1753;SDS011;58380;48.312;9.246;2024-03-07T17:42:01;40.42;;;24.15;;
1753;SDS011;58380;48.312;9.246;2024-03-07T17:45:14;38.90;;;23.60;;
1753;SDS011;58380;48.312;9.246;2024-03-07T17:48:19;36.08;;;22.35;;
1753;SDS011;58380;48.312;9.246;2024-03-07T17:51:19;35.13;;;22.80;;
1753;SDS011;58380;48.312;9.246;2024-03-07T17:54:20;35.35;;;22.08;;
1753;SDS011;58380;48.312;9.246;2024-03-07T17:57:23;33.95;;;20.63;;
1753;SDS011;58380;48.312;9.246;2024-03-07T18:00:23;33.08;;;22.15;;
1753;SDS011;58380;48.312;9.246;2024-03-07T18:03:26;37.80;;;20.77;;
1753;SDS011;58380;48.312;9.246;2024-03-07T18:06:27;36.45;;;21.45;;
1753;SDS011;58380;48.312;9.246;2024-03-07T18:09:28;33.67;;;19.60;;
1753;SDS011;58380;48.312;9.246;2024-03-07T18:12:28;35.28;;;21.48;;
1753;SDS011;58380;48.312;9.246;2024-03-07T18:15:28;30.80;;;20.75;;
1753;SDS011;58380;48.312;9.246;2024-03-07T18:18:29;32.08;;;20.17;;
1753;SDS011;58380;48.312;9.246;2024-03-07T18:21:32;36.78;;;20.13;;
1753;SDS011;58380;48.312;9.246;2024-03-07T18:24:33;34.97;;;20.27;;
1753;SDS011;58380;48.312;9.246;2024-03-07T18:27:34;30.63;;;18.98;;
1753;SDS011;58380;48.312;9.246;2024-03-07T18:30:34;34.55;;;20.45;;
1753;SDS011;58380;48.312;9.246;2024-03-07T18:33:35;32.40;;;19.55;;
1753;SDS011;58380;48.312;9.246;2024-03-07T18:36:35;29.65;;;18.77;;
1753;SDS011;58380;48.312;9.246;2024-03-07T18:39:36;34.25;;;20.83;;
1753;SDS011;58380;48.312;9.246;2024-03-07T18:42:36;29.50;;;18.88;;
1753;SDS011;58380;48.312;9.246;2024-03-07T18:45:38;33.47;;;20.65;;
1753;SDS011;58380;48.312;9.246;2024-03-07T18:48:43;32.05;;;19.48;;
1753;SDS011;58380;48.312;9.246;2024-03-07T18:51:44;35.85;;;21.67;;
1753;SDS011;58380;48.312;9.246;2024-03-07T18:54:48;33.92;;;21.42;;
1753;SDS011;58380;48.312;9.246;2024-03-07T18:57:49;31.50;;;20.60;;
1753;SDS011;58380;48.312;9.246;2024-03-07T19:00:50;35.30;;;20.95;;
1753;SDS011;58380;48.312;9.246;2024-03-07T19:03:52;31.55;;;19.33;;
1753;SDS011;58380;48.312;9.246;2024-03-07T19:06:53;32.28;;;19.27;;
1753;SDS011;58380;48.312;9.246;2024-03-07T19:09:57;31.45;;;17.98;;
1753;SDS011;58380;48.312;9.246;2024-03-07T19:12:58;32.90;;;20.33;;
1753;SDS011;58380;48.312;9.246;2024-03-07T19:15:59;30.90;;;19.02;;
1753;SDS011;58380;48.312;9.246;2024-03-07T19:19:00;30.42;;;19.05;;
1753;SDS011;58380;48.312;9.246;2024-03-07T19:22:01;31.23;;;18.83;;
1753;SDS011;58380;48.312;9.246;2024-03-07T19:25:04;34.25;;;20.17;;
1753;SDS011;58380;48.312;9.246;2024-03-07T19:28:11;34.72;;;19.67;;
1753;SDS011;58380;48.312;9.246;2024-03-07T19:31:15;36.78;;;20.45;;
1753;SDS011;58380;48.312;9.246;2024-03-07T19:34:15;29.17;;;17.70;;
1753;SDS011;58380;48.312;9.246;2024-03-07T19:37:19;28.17;;;17.88;;
1753;SDS011;58380;48.312;9.246;2024-03-07T19:40:22;32.47;;;18.65;;
1753;SDS011;58380;48.312;9.246;2024-03-07T19:43:22;32.55;;;18.70;;
1753;SDS011;58380;48.312;9.246;2024-03-07T19:46:26;29.38;;;16.77;;
1753;SDS011;58380;48.312;9.246;2024-03-07T19:49:28;34.72;;;18.77;;
1753;SDS011;58380;48.312;9.246;2024-03-07T19:52:28;29.55;;;17.88;;
1753;SDS011;58380;48.312;9.246;2024-03-07T19:55:29;28.05;;;16.80;;
1753;SDS011;58380;48.312;9.246;2024-03-07T19:58:32;27.15;;;17.23;;
1753;SDS011;58380;48.312;9.246;2024-03-07T20:01:34;28.27;;;16.55;;
1753;SDS011;58380;48.312;9.246;2024-03-07T20:04:38;30.42;;;19.02;;
1753;SDS011;58380;48.312;9.246;2024-03-07T20:07:38;30.25;;;18.63;;
1753;SDS011;58380;48.312;9.246;2024-03-07T20:10:40;31.27;;;18.75;;
1753;SDS011;58380;48.312;9.246;2024-03-07T20:13:41;30.20;;;18.35;;
1753;SDS011;58380;48.312;9.246;2024-03-07T20:16:42;29.92;;;18.35;;
1753;SDS011;58380;48.312;9.246;2024-03-07T20:19:42;30.15;;;18.50;;
1753;SDS011;58380;48.312;9.246;2024-03-07T20:22:43;31.50;;;19.42;;
1753;SDS011;58380;48.312;9.246;2024-03-07T20:25:47;33.10;;;18.90;;
1753;SDS011;58380;48.312;9.246;2024-03-07T20:28:48;30.42;;;18.52;;
1753;SDS011;58380;48.312;9.246;2024-03-07T20:31:48;29.33;;;17.98;;
1753;SDS011;58380;48.312;9.246;2024-03-07T20:34:48;31.55;;;18.80;;
1753;SDS011;58380;48.312;9.246;2024-03-07T20:37:49;32.47;;;18.60;;
1753;SDS011;58380;48.312;9.246;2024-03-07T20:40:49;30.75;;;18.27;;
1753;SDS011;58380;48.312;9.246;2024-03-07T20:43:52;32.97;;;18.15;;
1753;SDS011;58380;48.312;9.246;2024-03-07T20:46:53;29.10;;;18.20;;
1753;SDS011;58380;48.312;9.246;2024-03-07T20:49:55;28.40;;;17.80;;
1753;SDS011;58380;48.312;9.246;2024-03-07T20:52:56;30.05;;;18.48;;
1753;SDS011;58380;48.312;9.246;2024-03-07T20:55:56;31.27;;;18.58;;
1753;SDS011;58380;48.312;9.246;2024-03-07T20:59:02;30.00;;;18.20;;
1753;SDS011;58380;48.312;9.246;2024-03-07T21:02:02;30.80;;;18.17;;
1753;SDS011;58380;48.312;9.246;2024-03-07T21:05:03;33.28;;;19.00;;
1753;SDS011;58380;48.312;9.246;2024-03-07T21:08:04;34.42;;;18.50;;
1753;SDS011;58380;48.312;9.246;2024-03-07T21:11:05;29.55;;;17.65;;
1753;SDS011;58380;48.312;9.246;2024-03-07T21:14:06;30.63;;;17.83;;
1753;SDS011;58380;48.312;9.246;2024-03-07T21:17:09;31.77;;;18.02;;
1753;SDS011;58380;48.312;9.246;2024-03-07T21:20:12;28.80;;;17.85;;
1753;SDS011;58380;48.312;9.246;2024-03-07T21:23:18;31.50;;;18.25;;
1753;SDS011;58380;48.312;9.246;2024-03-07T21:26:18;28.35;;;16.58;;
1753;SDS011;58380;48.312;9.246;2024-03-07T21:29:19;31.27;;;17.23;;
1753;SDS011;58380;48.312;9.246;2024-03-07T21:32:19;30.15;;;16.20;;
1753;SDS011;58380;48.312;9.246;2024-03-07T21:35:21;29.15;;;16.40;;
1753;SDS011;58380;48.312;9.246;2024-03-07T21:38:22;28.35;;;16.25;;
1753;SDS011;58380;48.312;9.246;2024-03-07T21:41:22;28.40;;;16.02;;
1753;SDS011;58380;48.312;9.246;2024-03-07T21:48:26;26.80;;;15.75;;
